Ticonic, Iowa
Current Conditions -  °F | °C
As of 12:54 AM on Thursday 23 Oct 2014 (Local Time) from KTQE Reporting Station
Light Rain Light Rain  
Wind Chill: 62°   Ceiling: 1400
Heat Index: 62°   Visibility: 9mi
Dew Point: 60°   Wind: 5mph
Humidity: 93%   Direction: 150°SSE
Pressure: 30.01"   Gusts: NA
Location:  42.105°N, 95.9553°W
Report Text: KTQE 230554Z AUTO 15004KT 9SM -RA OVC014 17/16 A3001 RMK AO2 RAB46 SLP152 P0000 60030 T01670156 10178 20167 402390111 58004
Loading
Personal Weather Stations






























Interactive Weather Map
Tropical Storm Tracking
New forecast layout! Learn more

10-Day Weather Forecast

Advertisements
Track Severe Weather on mobile